createdAt,value
2019-02-09T00:01:27.815Z,33.47
2019-02-09T00:03:57.266Z,33.63
2019-02-09T00:06:25.315Z,34.63
2019-02-09T00:08:53.307Z,34.47
2019-02-09T00:11:21.330Z,35.00
2019-02-09T00:13:49.418Z,33.93
2019-02-09T00:16:17.412Z,33.40
2019-02-09T00:18:45.293Z,35.53
2019-02-09T00:21:13.228Z,34.53
2019-02-09T00:23:41.390Z,34.67
2019-02-09T00:26:09.329Z,34.43
2019-02-09T00:28:37.220Z,33.47
2019-02-09T00:31:05.263Z,36.27
2019-02-09T00:33:33.280Z,33.60
2019-02-09T00:36:01.387Z,32.20
2019-02-09T00:38:29.306Z,34.93
2019-02-09T00:40:57.251Z,35.70
2019-02-09T00:43:25.441Z,34.40
2019-02-09T00:45:53.404Z,36.57
2019-02-09T00:48:21.330Z,36.37
2019-02-09T00:50:49.483Z,33.77
2019-02-09T00:53:18.484Z,35.53
2019-02-09T00:55:46.528Z,34.80
2019-02-09T00:58:15.680Z,33.93
2019-02-09T01:00:43.751Z,33.23
2019-02-09T01:03:12.443Z,34.10
2019-02-09T01:05:42.462Z,35.57
2019-02-09T01:08:10.441Z,33.80
2019-02-09T01:10:38.511Z,35.13
2019-02-09T01:13:06.598Z,34.20
2019-02-09T01:15:34.541Z,32.10
2019-02-09T01:18:02.699Z,33.50
2019-02-09T01:20:30.708Z,33.13
2019-02-09T01:22:58.772Z,33.13
2019-02-09T01:25:26.946Z,32.10
2019-02-09T01:27:54.763Z,32.53
2019-02-09T01:30:23.809Z,32.97
2019-02-09T01:32:51.734Z,33.20
2019-02-09T01:35:20.041Z,32.77
2019-02-09T01:37:48.362Z,35.23
2019-02-09T01:40:19.006Z,35.70
2019-02-09T01:42:47.303Z,35.50
2019-02-09T01:45:21.583Z,34.50
2019-02-09T01:47:49.782Z,32.33
2019-02-09T01:50:17.950Z,33.03
2019-02-09T01:52:45.954Z,34.47
2019-02-09T01:55:14.054Z,33.47
2019-02-09T01:57:42.347Z,32.10
2019-02-09T02:00:15.548Z,32.83
2019-02-09T02:02:43.389Z,31.63
2019-02-09T02:05:12.027Z,30.37
2019-02-09T02:07:40.226Z,32.73
2019-02-09T02:10:11.906Z,33.97
2019-02-09T02:12:39.573Z,31.20
2019-02-09T02:15:10.591Z,32.93
2019-02-09T02:17:38.725Z,32.57
2019-02-09T02:20:08.979Z,31.37
2019-02-09T02:22:36.870Z,33.10
2019-02-09T02:25:05.524Z,32.10
2019-02-09T02:27:33.500Z,32.17
2019-02-09T02:30:01.531Z,31.13
2019-02-09T02:32:29.341Z,32.53
2019-02-09T02:34:57.247Z,32.97
2019-02-09T02:37:25.314Z,31.57
2019-02-09T02:39:53.449Z,30.20
2019-02-09T02:42:21.345Z,31.27
2019-02-09T02:44:49.162Z,32.77
2019-02-09T02:47:17.166Z,31.13
2019-02-09T02:49:45.323Z,32.50
2019-02-09T02:52:13.314Z,31.17
2019-02-09T02:54:41.227Z,31.77
2019-02-09T02:57:09.156Z,31.50
2019-02-09T02:59:37.290Z,31.13
2019-02-09T03:02:05.283Z,31.23
2019-02-09T03:04:33.182Z,32.60
2019-02-09T03:07:01.282Z,30.97
2019-02-09T03:09:29.160Z,33.53
2019-02-09T03:11:57.093Z,32.47
2019-02-09T03:14:25.357Z,30.97
2019-02-09T03:16:54.135Z,31.17
2019-02-09T03:19:22.214Z,31.47
2019-02-09T03:21:49.973Z,33.30
2019-02-09T03:24:17.924Z,31.70
2019-02-09T03:26:45.803Z,31.13
2019-02-09T03:29:13.860Z,30.80
2019-02-09T03:31:41.852Z,31.20
2019-02-09T03:34:09.799Z,32.43
2019-02-09T03:36:37.783Z,33.07
2019-02-09T03:39:07.371Z,31.77
2019-02-09T03:41:35.172Z,30.43
2019-02-09T03:44:03.299Z,32.03
2019-02-09T03:46:31.308Z,30.37
2019-02-09T03:48:59.283Z,31.20
2019-02-09T03:51:27.342Z,33.47
2019-02-09T03:53:55.269Z,34.77
2019-02-09T03:56:23.194Z,36.00
2019-02-09T03:58:51.212Z,35.23
2019-02-09T04:01:19.126Z,35.10
2019-02-09T04:03:47.242Z,35.03
2019-02-09T04:06:15.273Z,36.43
2019-02-09T04:08:43.082Z,34.30
2019-02-09T04:11:12.737Z,35.27
2019-02-09T04:13:40.801Z,34.63
2019-02-09T04:16:08.779Z,34.43
2019-02-09T04:18:36.798Z,35.77
2019-02-09T04:21:04.830Z,36.23
2019-02-09T04:23:32.996Z,36.30
2019-02-09T04:26:00.872Z,36.97
2019-02-09T04:28:29.211Z,36.63
2019-02-09T04:31:05.440Z,36.03
2019-02-09T04:33:27.154Z,37.30
2019-02-09T04:35:55.060Z,35.83
2019-02-09T04:38:23.176Z,36.03
2019-02-09T04:40:51.202Z,36.27
2019-02-09T04:43:19.183Z,35.17
2019-02-09T04:45:47.160Z,36.53
2019-02-09T04:48:15.255Z,35.23
2019-02-09T04:50:43.338Z,35.67
2019-02-09T04:53:11.625Z,34.67
2019-02-09T04:55:39.655Z,34.90
2019-02-09T04:58:07.905Z,36.77
2019-02-09T05:00:35.977Z,36.73
2019-02-09T05:03:05.270Z,36.53
2019-02-09T05:05:33.532Z,33.63
2019-02-09T05:08:01.392Z,36.53
2019-02-09T05:10:29.488Z,33.37
2019-02-09T05:12:57.562Z,34.93
2019-02-09T05:15:25.646Z,34.20
2019-02-09T05:17:53.545Z,35.03
2019-02-09T05:20:22.176Z,34.67
2019-02-09T05:22:50.104Z,34.33
2019-02-09T05:25:18.422Z,36.17
2019-02-09T05:27:47.500Z,34.13
2019-02-09T05:30:17.333Z,34.70
2019-02-09T05:32:45.226Z,35.07
2019-02-09T05:35:13.684Z,33.90
2019-02-09T05:37:41.607Z,33.13
2019-02-09T05:40:10.748Z,32.60
2019-02-09T05:42:38.766Z,31.47
2019-02-09T05:45:08.537Z,32.40
2019-02-09T05:47:36.527Z,31.97
2019-02-09T05:50:05.323Z,31.93
2019-02-09T05:52:33.237Z,31.13
2019-02-09T05:55:03.982Z,32.73
2019-02-09T05:57:31.882Z,32.87
2019-02-09T05:59:59.933Z,31.97
2019-02-09T06:02:28.044Z,30.23
2019-02-09T06:04:56.082Z,29.83
2019-02-09T06:07:23.999Z,31.40
2019-02-09T06:09:52.550Z,33.03
2019-02-09T06:12:20.341Z,31.27
2019-02-09T06:14:48.469Z,31.07
2019-02-09T06:17:16.784Z,31.90
2019-02-09T06:19:44.865Z,33.23
2019-02-09T06:22:12.934Z,33.27
2019-02-09T06:24:40.955Z,36.37
2019-02-09T06:27:08.919Z,35.40
2019-02-09T06:29:36.950Z,37.07
2019-02-09T06:32:05.035Z,36.60
2019-02-09T06:34:33.005Z,36.23
2019-02-09T06:37:00.931Z,34.50
2019-02-09T06:39:29.066Z,36.57
2019-02-09T06:41:57.155Z,35.20
2019-02-09T06:44:25.136Z,34.60
2019-02-09T06:46:53.248Z,33.03
2019-02-09T06:49:21.252Z,33.73
2019-02-09T06:51:49.372Z,34.57
2019-02-09T06:54:17.451Z,34.07
2019-02-09T06:56:45.517Z,32.93
2019-02-09T06:59:13.616Z,37.37
2019-02-09T07:01:48.555Z,33.43
2019-02-09T07:04:13.194Z,34.30
2019-02-09T07:06:41.226Z,35.03
2019-02-09T07:09:09.154Z,34.60
2019-02-09T07:11:37.002Z,34.63
2019-02-09T07:14:05.043Z,35.07
2019-02-09T07:16:32.829Z,32.17
2019-02-09T07:19:01.002Z,34.33
2019-02-09T07:21:29.023Z,33.50
2019-02-09T07:23:56.923Z,34.07
2019-02-09T07:26:24.801Z,34.67
2019-02-09T07:28:52.571Z,32.63
2019-02-09T07:31:20.543Z,35.33
2019-02-09T07:33:48.425Z,33.70
2019-02-09T07:36:16.456Z,34.43
2019-02-09T07:38:44.609Z,33.37
2019-02-09T07:41:12.492Z,34.40
2019-02-09T07:43:40.123Z,36.53
2019-02-09T07:46:07.631Z,39.93
2019-02-09T07:48:35.242Z,35.67
2019-02-09T07:51:02.780Z,35.53
2019-02-09T07:53:30.369Z,36.17
2019-02-09T07:55:57.989Z,34.23
2019-02-09T07:58:25.776Z,32.80
2019-02-09T08:00:53.697Z,33.87
2019-02-09T08:03:21.599Z,34.67
2019-02-09T08:05:49.924Z,36.13
2019-02-09T08:08:18.019Z,36.50
2019-02-09T08:10:45.980Z,36.70
2019-02-09T08:13:13.909Z,36.43
2019-02-09T08:15:41.922Z,35.23
2019-02-09T08:18:11.147Z,36.23
2019-02-09T08:20:39.061Z,34.00
2019-02-09T08:23:07.031Z,35.63
2019-02-09T08:25:35.654Z,33.07
2019-02-09T08:28:04.701Z,30.83
2019-02-09T08:30:37.938Z,33.33
2019-02-09T08:33:06.176Z,32.43
2019-02-09T08:35:33.718Z,29.50
2019-02-09T08:38:01.496Z,26.63
2019-02-09T08:40:29.217Z,29.13
2019-02-09T08:42:56.903Z,28.87
2019-02-09T08:45:24.621Z,27.80
2019-02-09T08:47:52.828Z,28.13
2019-02-09T08:50:23.144Z,28.87
2019-02-09T08:52:50.964Z,29.37
2019-02-09T08:55:19.035Z,29.20
2019-02-09T08:57:47.019Z,28.33
2019-02-09T09:00:17.563Z,28.30
2019-02-09T09:02:45.411Z,28.17
2019-02-09T09:05:13.315Z,26.70
2019-02-09T09:07:41.852Z,28.60
2019-02-09T09:10:10.392Z,27.87
2019-02-09T09:12:38.304Z,28.33
2019-02-09T09:15:09.698Z,27.07
2019-02-09T09:17:37.418Z,25.27
2019-02-09T09:20:09.024Z,26.83
2019-02-09T09:22:36.688Z,26.87
2019-02-09T09:25:05.342Z,27.07
2019-02-09T09:27:33.808Z,28.43
2019-02-09T09:30:01.793Z,26.93
2019-02-09T09:32:30.423Z,25.53
2019-02-09T09:34:58.457Z,25.93
2019-02-09T09:37:26.704Z,24.67
2019-02-09T09:39:54.730Z,23.13
2019-02-09T09:42:22.768Z,23.03
2019-02-09T09:44:50.895Z,22.13
2019-02-09T09:47:18.886Z,24.53
2019-02-09T09:49:46.758Z,23.20
2019-02-09T09:52:14.817Z,23.13
2019-02-09T09:54:42.859Z,26.20
2019-02-09T09:57:10.966Z,24.40
2019-02-09T09:59:39.137Z,21.63
2019-02-09T10:02:07.118Z,22.63
2019-02-09T10:04:36.793Z,23.47
2019-02-09T10:07:04.670Z,22.93
2019-02-09T10:09:32.618Z,23.90
2019-02-09T10:12:00.772Z,21.33
2019-02-09T10:14:28.887Z,20.37
2019-02-09T10:16:57.123Z,18.77
2019-02-09T10:19:24.970Z,18.73
2019-02-09T10:21:52.805Z,16.60
2019-02-09T10:24:20.560Z,18.70
2019-02-09T10:26:48.747Z,17.67
2019-02-09T10:29:17.029Z,17.50
2019-02-09T10:31:45.611Z,18.70
2019-02-09T10:34:13.727Z,17.90
2019-02-09T10:36:42.036Z,18.93
2019-02-09T10:39:10.267Z,17.43
2019-02-09T10:41:38.361Z,17.07
2019-02-09T10:44:06.745Z,18.67
2019-02-09T10:46:34.945Z,17.50
2019-02-09T10:49:03.349Z,16.83
2019-02-09T10:51:31.492Z,16.97
2019-02-09T10:53:59.737Z,16.73
2019-02-09T10:56:27.848Z,16.33
2019-02-09T10:58:55.841Z,15.17
2019-02-09T11:01:23.889Z,16.70
2019-02-09T11:03:52.090Z,16.43
2019-02-09T11:06:20.988Z,16.67
2019-02-09T11:08:49.007Z,16.30
2019-02-09T11:11:16.697Z,16.13
2019-02-09T11:13:44.411Z,15.27
2019-02-09T11:16:12.257Z,15.23
2019-02-09T11:18:40.034Z,15.30
2019-02-09T11:21:07.967Z,15.50
2019-02-09T11:23:35.597Z,13.70
2019-02-09T11:26:03.330Z,14.47
2019-02-09T11:28:30.984Z,15.83
2019-02-09T11:30:58.689Z,14.93
2019-02-09T11:33:26.409Z,14.43
2019-02-09T11:35:54.025Z,15.27
2019-02-09T11:38:21.632Z,15.17
2019-02-09T11:40:49.319Z,13.93
2019-02-09T11:43:18.046Z,13.83
2019-02-09T11:45:45.876Z,13.90
2019-02-09T11:48:13.561Z,14.97
2019-02-09T11:50:41.209Z,15.83
2019-02-09T11:53:08.915Z,14.70
2019-02-09T11:55:36.607Z,13.73
2019-02-09T11:58:04.349Z,14.00
2019-02-09T12:00:34.785Z,14.50
2019-02-09T12:03:08.496Z,13.90
2019-02-09T12:05:31.868Z,14.10
2019-02-09T12:07:59.449Z,13.50
2019-02-09T12:10:27.278Z,14.20
2019-02-09T12:12:54.852Z,14.03
2019-02-09T12:15:27.242Z,13.00
2019-02-09T12:17:54.885Z,14.17
2019-02-09T12:20:22.836Z,13.70
2019-02-09T12:22:50.399Z,13.63
2019-02-09T12:25:20.201Z,12.80
2019-02-09T12:27:49.347Z,12.60
2019-02-09T12:30:19.883Z,12.60
2019-02-09T12:32:47.477Z,13.97
2019-02-09T12:35:15.330Z,13.23
2019-02-09T12:37:42.892Z,13.70
2019-02-09T12:40:16.287Z,12.57
2019-02-09T12:42:43.998Z,12.90
2019-02-09T12:45:13.302Z,12.70
2019-02-09T12:47:41.032Z,12.97
2019-02-09T12:50:11.068Z,12.43
2019-02-09T12:52:38.790Z,11.87
2019-02-09T12:55:06.689Z,13.03
2019-02-09T12:57:34.415Z,11.87
2019-02-09T13:00:02.093Z,10.77
2019-02-09T13:02:31.071Z,11.47
2019-02-09T13:04:58.799Z,10.90
2019-02-09T13:07:26.559Z,11.27
2019-02-09T13:09:54.176Z,10.83
2019-02-09T13:12:23.484Z,10.17
2019-02-09T13:14:51.125Z,9.80
2019-02-09T13:17:18.767Z,9.60
2019-02-09T13:19:46.404Z,10.33
2019-02-09T13:22:14.023Z,10.73
2019-02-09T13:24:41.636Z,9.73
2019-02-09T13:27:09.257Z,8.33
2019-02-09T13:29:36.957Z,7.80
2019-02-09T13:32:04.862Z,8.17
2019-02-09T13:34:32.510Z,8.03
2019-02-09T13:37:00.195Z,9.47
2019-02-09T13:39:27.861Z,9.13
2019-02-09T13:41:55.893Z,8.50
2019-02-09T13:44:23.577Z,8.57
2019-02-09T13:46:51.292Z,8.73
2019-02-09T13:49:19.179Z,8.73
2019-02-09T13:51:46.884Z,9.77
2019-02-09T13:54:14.585Z,9.07
2019-02-09T13:56:42.266Z,9.10
2019-02-09T13:59:09.886Z,10.37
2019-02-09T14:01:37.551Z,9.03
2019-02-09T14:04:05.136Z,9.57
2019-02-09T14:06:32.714Z,10.20
2019-02-09T14:09:00.464Z,9.47
2019-02-09T14:11:28.013Z,9.43
2019-02-09T14:13:55.580Z,8.97
2019-02-09T14:16:23.306Z,10.30
2019-02-09T14:18:50.859Z,10.20
2019-02-09T14:21:18.520Z,9.60
2019-02-09T14:23:46.143Z,10.10
2019-02-09T14:26:13.858Z,11.00
2019-02-09T14:28:41.409Z,10.37
2019-02-09T14:31:09.034Z,10.10
2019-02-09T14:33:36.692Z,10.90
2019-02-09T14:36:04.706Z,10.17
2019-02-09T14:38:32.283Z,10.63
2019-02-09T14:41:00.053Z,10.20
2019-02-09T14:43:27.714Z,9.70
2019-02-09T14:45:55.321Z,11.27
2019-02-09T14:48:23.074Z,11.67
2019-02-09T14:50:53.514Z,10.53
2019-02-09T14:53:21.163Z,11.57
2019-02-09T14:55:48.882Z,11.00
2019-02-09T14:58:16.588Z,10.47
2019-02-09T15:00:46.733Z,11.43
2019-02-09T15:03:14.612Z,11.20
2019-02-09T15:05:42.477Z,11.27
2019-02-09T15:08:10.449Z,10.77
2019-02-09T15:10:38.308Z,11.43
2019-02-09T15:13:07.726Z,11.03
2019-02-09T15:15:41.697Z,10.93
2019-02-09T15:18:09.627Z,10.87
2019-02-09T15:20:40.414Z,11.77
2019-02-09T15:23:08.089Z,11.47
2019-02-09T15:25:35.823Z,11.27
2019-02-09T15:28:04.091Z,11.30
2019-02-09T15:30:31.972Z,11.93
2019-02-09T15:32:59.700Z,13.53
2019-02-09T15:35:27.367Z,13.13
2019-02-09T15:37:55.191Z,13.30
2019-02-09T15:40:22.855Z,12.20
2019-02-09T15:42:50.556Z,13.17
2019-02-09T15:45:18.808Z,13.17
2019-02-09T15:47:46.793Z,12.97
2019-02-09T15:50:14.814Z,13.60
2019-02-09T15:52:42.748Z,12.80
2019-02-09T15:55:13.358Z,12.80
2019-02-09T15:57:41.018Z,14.00
2019-02-09T16:00:19.793Z,14.53
2019-02-09T16:02:47.418Z,15.63
2019-02-09T16:05:15.154Z,15.83
2019-02-09T16:07:42.790Z,14.60
2019-02-09T16:10:11.126Z,15.57
2019-02-09T16:12:38.730Z,14.77
2019-02-09T16:15:08.229Z,15.00
2019-02-09T16:17:35.856Z,16.10
2019-02-09T16:20:05.254Z,17.60
2019-02-09T16:22:32.855Z,19.07
2019-02-09T16:25:00.513Z,17.67
2019-02-09T16:27:29.348Z,18.03
2019-02-09T16:29:56.980Z,17.77
2019-02-09T16:32:24.544Z,16.30
2019-02-09T16:34:52.101Z,17.53
2019-02-09T16:37:19.697Z,17.23
2019-02-09T16:39:47.303Z,18.33
2019-02-09T16:42:14.958Z,19.23
2019-02-09T16:44:42.554Z,17.67
2019-02-09T16:47:10.280Z,18.77
2019-02-09T16:49:37.879Z,16.80
2019-02-09T16:52:05.471Z,19.40
2019-02-09T16:54:33.095Z,20.00
2019-02-09T16:57:00.830Z,20.67
2019-02-09T16:59:28.562Z,21.23
2019-02-09T17:01:56.255Z,20.00
2019-02-09T17:04:23.923Z,20.10
2019-02-09T17:06:51.607Z,19.33
2019-02-09T17:09:19.350Z,22.03
2019-02-09T17:11:47.027Z,20.97
2019-02-09T17:14:14.769Z,20.80
2019-02-09T17:16:42.393Z,21.10
2019-02-09T17:19:10.260Z,21.63
2019-02-09T17:21:37.913Z,22.23
2019-02-09T17:24:05.507Z,20.67
2019-02-09T17:26:33.141Z,21.33
2019-02-09T17:29:00.730Z,21.77
2019-02-09T17:31:28.419Z,22.23
2019-02-09T17:33:56.135Z,21.37
2019-02-09T17:36:23.853Z,22.13
2019-02-09T17:38:51.443Z,23.87
2019-02-09T17:41:19.108Z,25.10
2019-02-09T17:43:46.725Z,27.17
2019-02-09T17:46:16.258Z,26.03
2019-02-09T17:48:46.912Z,29.97
2019-02-09T17:51:14.614Z,28.90
2019-02-09T17:53:42.202Z,28.70
2019-02-09T17:56:09.852Z,27.67
2019-02-09T17:58:37.396Z,27.17
2019-02-09T18:01:08.823Z,26.57
2019-02-09T18:03:36.645Z,50.17
2019-02-09T18:06:04.444Z,126.50
2019-02-09T18:08:32.086Z,66.43
2019-02-09T18:10:59.847Z,48.03
2019-02-09T18:13:27.470Z,41.90
2019-02-09T18:15:55.100Z,37.80
2019-02-09T18:18:22.673Z,27.77
2019-02-09T18:20:50.428Z,26.93
2019-02-09T18:23:20.940Z,24.13
2019-02-09T18:25:48.587Z,28.93
2019-02-09T18:28:16.212Z,22.73
2019-02-09T18:30:43.892Z,23.80
2019-02-09T18:33:11.552Z,24.80
2019-02-09T18:35:40.240Z,26.47
2019-02-09T18:38:07.917Z,25.80
2019-02-09T18:40:35.692Z,26.53
2019-02-09T18:43:03.460Z,27.57
2019-02-09T18:45:31.566Z,22.50
2019-02-09T18:47:59.315Z,24.63
2019-02-09T18:50:29.981Z,24.40
2019-02-09T18:52:58.388Z,24.40
2019-02-09T18:55:26.382Z,25.17
2019-02-09T18:57:54.012Z,25.17
2019-02-09T19:00:23.523Z,24.50
2019-02-09T19:02:51.265Z,27.50
2019-02-09T19:05:19.206Z,25.87
2019-02-09T19:07:46.961Z,23.27
2019-02-09T19:10:17.444Z,23.53
2019-02-09T19:12:45.075Z,22.87
2019-02-09T19:15:15.095Z,23.60
2019-02-09T19:17:42.805Z,24.30
2019-02-09T19:20:14.624Z,25.87
2019-02-09T19:22:42.248Z,26.93
2019-02-09T19:25:10.547Z,27.93
2019-02-09T19:27:38.144Z,27.80
2019-02-09T19:30:09.772Z,26.83
2019-02-09T19:32:38.392Z,28.23
2019-02-09T19:35:11.935Z,27.57
2019-02-09T19:37:35.829Z,26.70
2019-02-09T19:40:05.195Z,28.20
2019-02-09T19:42:32.867Z,29.03
2019-02-09T19:45:00.607Z,27.63
2019-02-09T19:47:28.276Z,27.70
2019-02-09T19:49:56.234Z,28.83
2019-02-09T19:52:23.824Z,28.00
2019-02-09T19:54:51.473Z,30.70
2019-02-09T19:57:19.174Z,29.97
2019-02-09T19:59:46.842Z,29.53
2019-02-09T20:02:14.654Z,26.50
2019-02-09T20:04:42.302Z,27.77
2019-02-09T20:07:09.963Z,27.67
2019-02-09T20:09:37.561Z,25.90
2019-02-09T20:12:05.304Z,27.23
2019-02-09T20:14:32.865Z,27.73
2019-02-09T20:17:00.523Z,28.20
2019-02-09T20:19:28.145Z,28.27
2019-02-09T20:21:55.868Z,29.43
2019-02-09T20:24:23.507Z,28.03
2019-02-09T20:26:51.595Z,26.77
2019-02-09T20:29:19.399Z,28.13
2019-02-09T20:31:47.612Z,28.87
2019-02-09T20:34:15.393Z,28.03
2019-02-09T20:36:43.384Z,28.20
2019-02-09T20:39:11.284Z,28.97
2019-02-09T20:41:40.642Z,27.73
2019-02-09T20:44:08.806Z,29.10
2019-02-09T20:46:36.829Z,29.30
2019-02-09T20:49:05.117Z,29.73
2019-02-09T20:51:33.404Z,30.53
2019-02-09T20:54:01.445Z,30.70
2019-02-09T20:56:29.548Z,32.20
2019-02-09T20:58:57.598Z,30.80
2019-02-09T21:01:25.690Z,29.80
2019-02-09T21:03:53.791Z,31.37
2019-02-09T21:06:21.744Z,30.23
2019-02-09T21:08:49.877Z,30.13
2019-02-09T21:11:17.846Z,30.97
2019-02-09T21:13:45.898Z,31.63
2019-02-09T21:16:14.084Z,32.40
2019-02-09T21:18:42.292Z,32.20
2019-02-09T21:21:10.432Z,33.57
2019-02-09T21:23:38.610Z,31.53
2019-02-09T21:26:06.767Z,29.30
2019-02-09T21:28:35.768Z,29.73
2019-02-09T21:31:03.989Z,30.00
2019-02-09T21:33:32.114Z,29.10
2019-02-09T21:35:59.990Z,29.97
2019-02-09T21:38:31.040Z,28.93
2019-02-09T21:40:59.344Z,28.07
2019-02-09T21:43:27.357Z,31.90
2019-02-09T21:45:55.093Z,32.00
2019-02-09T21:48:23.114Z,33.03
2019-02-09T21:50:51.148Z,30.83
2019-02-09T21:53:19.282Z,31.00
2019-02-09T21:55:47.373Z,27.67
2019-02-09T21:58:15.478Z,29.30
2019-02-09T22:00:43.967Z,28.87
2019-02-09T22:03:12.432Z,30.73
2019-02-09T22:05:40.791Z,29.30
2019-02-09T22:08:10.208Z,30.47
2019-02-09T22:10:38.912Z,30.90
2019-02-09T22:13:07.360Z,29.77
2019-02-09T22:15:38.905Z,30.00
2019-02-09T22:18:05.513Z,30.57
2019-02-09T22:20:33.641Z,29.23
2019-02-09T22:23:01.670Z,28.73
2019-02-09T22:25:29.862Z,27.93
2019-02-09T22:27:57.889Z,27.13
2019-02-09T22:30:26.803Z,28.40
2019-02-09T22:32:55.157Z,27.50
2019-02-09T22:35:23.250Z,27.23
2019-02-09T22:37:51.370Z,28.37
2019-02-09T22:40:21.033Z,28.23
2019-02-09T22:42:49.125Z,27.23
2019-02-09T22:45:17.666Z,28.67
2019-02-09T22:47:45.642Z,28.90
2019-02-09T22:50:25.130Z,28.63
2019-02-09T22:52:53.199Z,27.77
2019-02-09T22:55:21.252Z,28.67
2019-02-09T22:57:49.364Z,27.33
2019-02-09T23:00:50.208Z,28.70
2019-02-09T23:03:18.394Z,27.93
2019-02-09T23:06:34.964Z,27.17
2019-02-09T23:09:04.403Z,27.30
2019-02-09T23:11:32.352Z,27.23
2019-02-09T23:14:00.414Z,27.90
2019-02-09T23:16:28.356Z,27.07
2019-02-09T23:18:56.363Z,27.53
2019-02-09T23:21:24.344Z,27.40
2019-02-09T23:23:52.619Z,27.57
2019-02-09T23:26:20.417Z,26.63
2019-02-09T23:28:48.343Z,27.27
2019-02-09T23:31:16.446Z,28.83
2019-02-09T23:33:44.213Z,28.43
2019-02-09T23:36:16.463Z,27.73
2019-02-09T23:38:42.282Z,28.60
2019-02-09T23:41:10.178Z,30.30
2019-02-09T23:43:38.228Z,30.97
2019-02-09T23:46:06.160Z,29.80
2019-02-09T23:48:34.057Z,27.63
2019-02-09T23:51:02.068Z,30.53
2019-02-09T23:53:30.116Z,29.93
2019-02-09T23:55:58.493Z,30.17
2019-02-09T23:58:26.568Z,29.17
